New York, Iowa
Current Conditions -  °F | °C
As of 12:55 PM on Monday 20 Oct 2014 (Local Time) from KCNC Reporting Station
Clear Clear  
Wind Chill: 66°   Ceiling: Unl
Heat Index: 66°   Visibility: 10mi
Dew Point: 43°   Wind: 10mph
Humidity: 43%   Direction: 310°NW
Pressure: 30.03"   Gusts: NA
Location:  40.9063°N, 93.1553°W
Report Text: KCNC 201755Z AUTO 31009KT 10SM CLR 19/06 A3003 RMK AO2
Loading
Personal Weather Stations






























Interactive Weather Map
Tropical Storm Tracking
New forecast layout! Learn more

10-Day Weather Forecast

Advertisements
Track Severe Weather on mobile